sensor_id;sensor_type;location;lat;lon;timestamp;P1;durP1;ratioP1;P2;durP2;ratioP2
9938;SDS011;5008;50.656;7.188;2023-01-20T05:00:43;9.40;;;6.13;;
9938;SDS011;5008;50.656;7.188;2023-01-20T05:03:10;8.03;;;6.10;;
9938;SDS011;5008;50.656;7.188;2023-01-20T05:05:37;7.77;;;6.23;;
9938;SDS011;5008;50.656;7.188;2023-01-20T05:08:04;7.20;;;6.03;;
9938;SDS011;5008;50.656;7.188;2023-01-20T05:10:31;7.83;;;6.70;;
9938;SDS011;5008;50.656;7.188;2023-01-20T05:12:58;7.63;;;6.47;;
9938;SDS011;5008;50.656;7.188;2023-01-20T05:15:25;6.83;;;5.90;;
9938;SDS011;5008;50.656;7.188;2023-01-20T05:17:53;8.60;;;6.77;;
9938;SDS011;5008;50.656;7.188;2023-01-20T05:20:20;8.17;;;6.40;;
9938;SDS011;5008;50.656;7.188;2023-01-20T05:22:46;7.90;;;6.23;;
9938;SDS011;5008;50.656;7.188;2023-01-20T05:25:13;8.40;;;6.67;;
9938;SDS011;5008;50.656;7.188;2023-01-20T05:27:40;7.37;;;5.97;;
9938;SDS011;5008;50.656;7.188;2023-01-20T05:30:09;6.43;;;5.77;;
9938;SDS011;5008;50.656;7.188;2023-01-20T05:32:36;8.00;;;6.47;;
9938;SDS011;5008;50.656;7.188;2023-01-20T05:35:05;6.23;;;5.53;;
9938;SDS011;5008;50.656;7.188;2023-01-20T05:37:33;8.53;;;6.20;;
9938;SDS011;5008;50.656;7.188;2023-01-20T05:39:59;7.20;;;6.30;;
9938;SDS011;5008;50.656;7.188;2023-01-20T05:42:26;7.90;;;6.77;;
9938;SDS011;5008;50.656;7.188;2023-01-20T05:44:53;10.30;;;6.87;;
9938;SDS011;5008;50.656;7.188;2023-01-20T05:47:20;9.83;;;6.43;;
9938;SDS011;5008;50.656;7.188;2023-01-20T05:49:46;8.10;;;6.30;;
9938;SDS011;5008;50.656;7.188;2023-01-20T05:52:15;7.03;;;6.10;;
9938;SDS011;5008;50.656;7.188;2023-01-20T05:54:41;10.37;;;6.53;;
9938;SDS011;5008;50.656;7.188;2023-01-20T05:57:08;6.70;;;5.90;;
9938;SDS011;5008;50.656;7.188;2023-01-20T05:59:35;7.77;;;6.13;;
9938;SDS011;5008;50.656;7.188;2023-01-20T06:02:02;9.53;;;6.90;;
9938;SDS011;5008;50.656;7.188;2023-01-20T06:04:28;8.70;;;7.33;;
9938;SDS011;5008;50.656;7.188;2023-01-20T06:06:55;7.57;;;6.53;;
9938;SDS011;5008;50.656;7.188;2023-01-20T06:09:24;8.43;;;6.43;;
9938;SDS011;5008;50.656;7.188;2023-01-20T06:11:50;8.23;;;7.03;;
9938;SDS011;5008;50.656;7.188;2023-01-20T06:14:17;10.00;;;7.00;;
9938;SDS011;5008;50.656;7.188;2023-01-20T06:16:44;10.07;;;6.53;;
9938;SDS011;5008;50.656;7.188;2023-01-20T06:19:11;8.57;;;6.27;;
9938;SDS011;5008;50.656;7.188;2023-01-20T06:21:38;7.63;;;6.20;;
9938;SDS011;5008;50.656;7.188;2023-01-20T06:24:05;8.20;;;6.43;;
9938;SDS011;5008;50.656;7.188;2023-01-20T06:26:33;8.33;;;6.40;;
9938;SDS011;5008;50.656;7.188;2023-01-20T06:29:00;8.03;;;6.77;;
9938;SDS011;5008;50.656;7.188;2023-01-20T06:31:27;10.27;;;7.10;;
9938;SDS011;5008;50.656;7.188;2023-01-20T06:33:53;7.40;;;6.23;;
9938;SDS011;5008;50.656;7.188;2023-01-20T06:36:21;11.90;;;7.50;;
9938;SDS011;5008;50.656;7.188;2023-01-20T06:38:48;9.03;;;7.17;;
9938;SDS011;5008;50.656;7.188;2023-01-20T06:41:17;9.40;;;6.97;;
9938;SDS011;5008;50.656;7.188;2023-01-20T06:43:46;10.53;;;8.10;;
9938;SDS011;5008;50.656;7.188;2023-01-20T06:46:14;12.87;;;8.70;;
9938;SDS011;5008;50.656;7.188;2023-01-20T06:48:41;10.00;;;8.47;;
9938;SDS011;5008;50.656;7.188;2023-01-20T06:51:10;10.30;;;8.17;;
9938;SDS011;5008;50.656;7.188;2023-01-20T06:53:37;11.43;;;8.30;;
9938;SDS011;5008;50.656;7.188;2023-01-20T06:56:04;14.70;;;8.00;;
9938;SDS011;5008;50.656;7.188;2023-01-20T06:58:32;10.33;;;8.23;;
9938;SDS011;5008;50.656;7.188;2023-01-20T07:01:04;10.93;;;7.53;;
9938;SDS011;5008;50.656;7.188;2023-01-20T07:03:33;11.10;;;7.87;;
9938;SDS011;5008;50.656;7.188;2023-01-20T07:06:00;10.90;;;8.17;;
9938;SDS011;5008;50.656;7.188;2023-01-20T07:08:30;10.17;;;7.77;;
9938;SDS011;5008;50.656;7.188;2023-01-20T07:10:56;9.13;;;7.50;;
9938;SDS011;5008;50.656;7.188;2023-01-20T07:13:23;10.80;;;8.10;;
9938;SDS011;5008;50.656;7.188;2023-01-20T07:15:50;11.40;;;8.57;;
9938;SDS011;5008;50.656;7.188;2023-01-20T07:18:19;11.57;;;8.30;;
9938;SDS011;5008;50.656;7.188;2023-01-20T07:20:46;10.67;;;9.03;;
9938;SDS011;5008;50.656;7.188;2023-01-20T07:23:12;12.23;;;9.03;;
9938;SDS011;5008;50.656;7.188;2023-01-20T07:25:39;10.67;;;8.07;;
9938;SDS011;5008;50.656;7.188;2023-01-20T07:28:06;12.33;;;8.03;;
9938;SDS011;5008;50.656;7.188;2023-01-20T07:30:33;12.23;;;8.60;;
9938;SDS011;5008;50.656;7.188;2023-01-20T07:32:59;11.40;;;8.33;;
9938;SDS011;5008;50.656;7.188;2023-01-20T07:35:27;12.80;;;8.67;;
9938;SDS011;5008;50.656;7.188;2023-01-20T07:37:54;10.40;;;7.90;;
9938;SDS011;5008;50.656;7.188;2023-01-20T07:40:21;10.73;;;8.07;;
9938;SDS011;5008;50.656;7.188;2023-01-20T07:42:48;11.90;;;8.70;;
9938;SDS011;5008;50.656;7.188;2023-01-20T07:45:16;11.77;;;8.20;;
9938;SDS011;5008;50.656;7.188;2023-01-20T07:47:43;9.53;;;8.00;;
9938;SDS011;5008;50.656;7.188;2023-01-20T07:50:09;10.63;;;7.90;;
9938;SDS011;5008;50.656;7.188;2023-01-20T07:52:37;11.40;;;7.93;;
9938;SDS011;5008;50.656;7.188;2023-01-20T07:55:06;8.80;;;7.40;;
9938;SDS011;5008;50.656;7.188;2023-01-20T07:57:33;11.30;;;8.13;;
9938;SDS011;5008;50.656;7.188;2023-01-20T08:00:00;12.30;;;8.33;;
9938;SDS011;5008;50.656;7.188;2023-01-20T08:02:27;11.80;;;9.27;;
9938;SDS011;5008;50.656;7.188;2023-01-20T08:04:53;11.47;;;8.73;;
9938;SDS011;5008;50.656;7.188;2023-01-20T08:07:20;13.13;;;9.53;;
9938;SDS011;5008;50.656;7.188;2023-01-20T08:09:48;9.70;;;8.07;;
9938;SDS011;5008;50.656;7.188;2023-01-20T08:12:15;9.17;;;7.73;;
9938;SDS011;5008;50.656;7.188;2023-01-20T08:14:42;10.70;;;7.97;;
9938;SDS011;5008;50.656;7.188;2023-01-20T08:17:08;10.20;;;7.83;;
9938;SDS011;5008;50.656;7.188;2023-01-20T08:19:35;11.63;;;8.40;;
9938;SDS011;5008;50.656;7.188;2023-01-20T08:22:02;9.47;;;8.07;;
9938;SDS011;5008;50.656;7.188;2023-01-20T08:24:29;10.50;;;7.80;;
9938;SDS011;5008;50.656;7.188;2023-01-20T08:26:57;9.53;;;7.93;;
9938;SDS011;5008;50.656;7.188;2023-01-20T08:29:24;11.27;;;7.93;;
9938;SDS011;5008;50.656;7.188;2023-01-20T08:31:50;12.80;;;8.73;;
9938;SDS011;5008;50.656;7.188;2023-01-20T08:34:17;11.03;;;8.07;;
9938;SDS011;5008;50.656;7.188;2023-01-20T08:36:45;13.33;;;8.50;;
9938;SDS011;5008;50.656;7.188;2023-01-20T08:39:14;11.33;;;8.53;;
9938;SDS011;5008;50.656;7.188;2023-01-20T08:41:42;13.53;;;8.60;;
9938;SDS011;5008;50.656;7.188;2023-01-20T08:44:11;13.20;;;9.63;;
9938;SDS011;5008;50.656;7.188;2023-01-20T08:46:38;11.60;;;8.77;;
9938;SDS011;5008;50.656;7.188;2023-01-20T08:49:05;10.50;;;8.03;;
9938;SDS011;5008;50.656;7.188;2023-01-20T08:51:33;12.13;;;8.73;;
9938;SDS011;5008;50.656;7.188;2023-01-20T08:54:00;11.37;;;8.47;;
9938;SDS011;5008;50.656;7.188;2023-01-20T08:56:27;11.33;;;8.87;;
9938;SDS011;5008;50.656;7.188;2023-01-20T08:58:55;10.17;;;8.07;;
9938;SDS011;5008;50.656;7.188;2023-01-20T09:01:24;11.13;;;8.70;;
9938;SDS011;5008;50.656;7.188;2023-01-20T09:03:53;11.17;;;9.00;;
9938;SDS011;5008;50.656;7.188;2023-01-20T09:06:20;11.73;;;9.43;;
9938;SDS011;5008;50.656;7.188;2023-01-20T09:08:47;12.90;;;9.10;;
9938;SDS011;5008;50.656;7.188;2023-01-20T09:11:15;12.63;;;9.17;;
9938;SDS011;5008;50.656;7.188;2023-01-20T09:13:45;11.00;;;9.07;;
9938;SDS011;5008;50.656;7.188;2023-01-20T09:16:12;11.63;;;8.53;;
9938;SDS011;5008;50.656;7.188;2023-01-20T09:18:42;11.43;;;8.70;;
9938;SDS011;5008;50.656;7.188;2023-01-20T09:21:09;10.60;;;8.57;;
9938;SDS011;5008;50.656;7.188;2023-01-20T09:23:37;11.97;;;9.17;;
9938;SDS011;5008;50.656;7.188;2023-01-20T09:26:05;11.67;;;8.97;;
9938;SDS011;5008;50.656;7.188;2023-01-20T09:28:32;10.43;;;8.80;;
9938;SDS011;5008;50.656;7.188;2023-01-20T09:31:00;11.90;;;8.70;;
9938;SDS011;5008;50.656;7.188;2023-01-20T09:33:29;11.57;;;8.97;;
9938;SDS011;5008;50.656;7.188;2023-01-20T09:35:58;11.90;;;9.00;;
9938;SDS011;5008;50.656;7.188;2023-01-20T09:38:25;12.43;;;9.10;;
9938;SDS011;5008;50.656;7.188;2023-01-20T09:41:13;11.13;;;8.67;;
9938;SDS011;5008;50.656;7.188;2023-01-20T09:44:02;12.47;;;8.60;;
9938;SDS011;5008;50.656;7.188;2023-01-20T09:46:45;12.83;;;9.10;;
9938;SDS011;5008;50.656;7.188;2023-01-20T09:49:41;13.00;;;8.90;;
9938;SDS011;5008;50.656;7.188;2023-01-20T09:52:33;11.07;;;9.00;;
9938;SDS011;5008;50.656;7.188;2023-01-20T09:55:20;10.77;;;8.67;;
9938;SDS011;5008;50.656;7.188;2023-01-20T09:57:52;11.83;;;8.10;;
9938;SDS011;5008;50.656;7.188;2023-01-20T10:00:25;10.27;;;7.80;;
9938;SDS011;5008;50.656;7.188;2023-01-20T10:02:56;10.13;;;8.10;;
9938;SDS011;5008;50.656;7.188;2023-01-20T10:05:28;10.83;;;7.80;;
9938;SDS011;5008;50.656;7.188;2023-01-20T10:08:01;9.30;;;7.57;;
9938;SDS011;5008;50.656;7.188;2023-01-20T10:10:34;12.03;;;7.57;;
9938;SDS011;5008;50.656;7.188;2023-01-20T10:13:05;11.23;;;7.90;;
9938;SDS011;5008;50.656;7.188;2023-01-20T10:15:39;8.83;;;6.93;;
9938;SDS011;5008;50.656;7.188;2023-01-20T10:18:11;10.33;;;7.93;;
9938;SDS011;5008;50.656;7.188;2023-01-20T10:20:43;8.87;;;7.37;;
9938;SDS011;5008;50.656;7.188;2023-01-20T10:23:17;9.77;;;7.87;;
9938;SDS011;5008;50.656;7.188;2023-01-20T10:25:50;10.60;;;7.57;;
9938;SDS011;5008;50.656;7.188;2023-01-20T10:28:24;10.07;;;8.20;;
9938;SDS011;5008;50.656;7.188;2023-01-20T10:30:53;8.60;;;7.43;;
9938;SDS011;5008;50.656;7.188;2023-01-20T10:33:22;10.47;;;7.43;;
9938;SDS011;5008;50.656;7.188;2023-01-20T10:35:53;10.50;;;8.03;;
9938;SDS011;5008;50.656;7.188;2023-01-20T10:38:25;10.83;;;7.33;;
9938;SDS011;5008;50.656;7.188;2023-01-20T10:41:01;10.90;;;8.20;;
9938;SDS011;5008;50.656;7.188;2023-01-20T10:43:34;9.47;;;8.23;;
9938;SDS011;5008;50.656;7.188;2023-01-20T10:46:05;10.40;;;7.80;;
9938;SDS011;5008;50.656;7.188;2023-01-20T10:48:47;10.50;;;7.80;;
9938;SDS011;5008;50.656;7.188;2023-01-20T10:51:26;11.53;;;7.90;;
9938;SDS011;5008;50.656;7.188;2023-01-20T10:54:08;10.20;;;8.00;;
9938;SDS011;5008;50.656;7.188;2023-01-20T10:56:46;10.87;;;8.17;;
9938;SDS011;5008;50.656;7.188;2023-01-20T10:59:19;9.37;;;8.10;;
9938;SDS011;5008;50.656;7.188;2023-01-20T11:01:52;10.20;;;7.00;;
9938;SDS011;5008;50.656;7.188;2023-01-20T11:04:23;11.10;;;7.73;;
9938;SDS011;5008;50.656;7.188;2023-01-20T11:06:50;10.07;;;7.70;;
9938;SDS011;5008;50.656;7.188;2023-01-20T11:09:26;11.40;;;8.10;;
9938;SDS011;5008;50.656;7.188;2023-01-20T11:11:57;7.93;;;7.13;;
9938;SDS011;5008;50.656;7.188;2023-01-20T11:14:25;7.80;;;7.00;;
9938;SDS011;5008;50.656;7.188;2023-01-20T11:16:53;9.03;;;6.93;;
9938;SDS011;5008;50.656;7.188;2023-01-20T11:19:25;10.80;;;7.30;;
9938;SDS011;5008;50.656;7.188;2023-01-20T11:21:52;7.57;;;6.60;;
9938;SDS011;5008;50.656;7.188;2023-01-20T11:24:33;8.30;;;6.23;;
9938;SDS011;5008;50.656;7.188;2023-01-20T11:27:10;10.10;;;6.80;;
9938;SDS011;5008;50.656;7.188;2023-01-20T11:29:39;7.83;;;6.83;;
9938;SDS011;5008;50.656;7.188;2023-01-20T11:32:27;8.20;;;6.53;;
9938;SDS011;5008;50.656;7.188;2023-01-20T11:34:56;9.40;;;7.23;;
9938;SDS011;5008;50.656;7.188;2023-01-20T11:37:24;8.67;;;6.80;;
9938;SDS011;5008;50.656;7.188;2023-01-20T11:40:02;10.07;;;6.57;;
9938;SDS011;5008;50.656;7.188;2023-01-20T11:42:41;9.60;;;6.93;;
9938;SDS011;5008;50.656;7.188;2023-01-20T11:45:21;9.60;;;6.90;;
9938;SDS011;5008;50.656;7.188;2023-01-20T11:48:01;9.07;;;6.93;;
9938;SDS011;5008;50.656;7.188;2023-01-20T11:50:37;8.10;;;6.70;;
9938;SDS011;5008;50.656;7.188;2023-01-20T11:53:14;9.47;;;6.70;;
9938;SDS011;5008;50.656;7.188;2023-01-20T11:55:48;10.03;;;6.43;;
9938;SDS011;5008;50.656;7.188;2023-01-20T11:58:18;7.03;;;6.17;;
9938;SDS011;5008;50.656;7.188;2023-01-20T12:00:47;6.80;;;5.77;;
9938;SDS011;5008;50.656;7.188;2023-01-20T12:03:34;6.70;;;6.00;;
9938;SDS011;5008;50.656;7.188;2023-01-20T12:06:22;7.03;;;5.87;;
9938;SDS011;5008;50.656;7.188;2023-01-20T12:08:51;7.80;;;6.33;;
9938;SDS011;5008;50.656;7.188;2023-01-20T12:11:25;10.10;;;6.87;;
9938;SDS011;5008;50.656;7.188;2023-01-20T12:13:59;8.17;;;6.23;;
9938;SDS011;5008;50.656;7.188;2023-01-20T12:16:47;6.50;;;5.83;;
9938;SDS011;5008;50.656;7.188;2023-01-20T12:19:24;7.60;;;6.00;;
9938;SDS011;5008;50.656;7.188;2023-01-20T12:21:56;7.80;;;5.97;;
9938;SDS011;5008;50.656;7.188;2023-01-20T12:24:31;7.53;;;6.00;;
9938;SDS011;5008;50.656;7.188;2023-01-20T12:27:19;8.00;;;5.97;;
9938;SDS011;5008;50.656;7.188;2023-01-20T12:29:50;9.30;;;6.53;;
9938;SDS011;5008;50.656;7.188;2023-01-20T12:32:21;8.23;;;5.67;;
9938;SDS011;5008;50.656;7.188;2023-01-20T12:34:48;7.27;;;6.03;;
9938;SDS011;5008;50.656;7.188;2023-01-20T12:37:16;6.97;;;5.10;;
9938;SDS011;5008;50.656;7.188;2023-01-20T12:40:02;6.37;;;5.20;;
9938;SDS011;5008;50.656;7.188;2023-01-20T12:42:53;7.87;;;5.47;;
9938;SDS011;5008;50.656;7.188;2023-01-20T12:46:07;8.40;;;5.57;;
9938;SDS011;5008;50.656;7.188;2023-01-20T12:48:51;8.50;;;6.53;;
9938;SDS011;5008;50.656;7.188;2023-01-20T12:51:39;6.27;;;5.30;;
9938;SDS011;5008;50.656;7.188;2023-01-20T12:57:14;8.77;;;6.30;;
9938;SDS011;5008;50.656;7.188;2023-01-20T12:59:53;10.67;;;6.10;;
9938;SDS011;5008;50.656;7.188;2023-01-20T13:02:40;7.20;;;6.17;;
9938;SDS011;5008;50.656;7.188;2023-01-20T13:08:17;7.80;;;6.57;;
9938;SDS011;5008;50.656;7.188;2023-01-20T13:10:50;8.67;;;6.27;;
9938;SDS011;5008;50.656;7.188;2023-01-20T13:13:32;8.20;;;5.80;;
9938;SDS011;5008;50.656;7.188;2023-01-20T13:16:09;6.80;;;6.10;;
9938;SDS011;5008;50.656;7.188;2023-01-20T13:18:49;10.00;;;6.60;;
9938;SDS011;5008;50.656;7.188;2023-01-20T13:21:27;7.20;;;6.37;;
9938;SDS011;5008;50.656;7.188;2023-01-20T13:23:55;8.20;;;6.23;;
9938;SDS011;5008;50.656;7.188;2023-01-20T13:26:25;9.00;;;6.07;;
9938;SDS011;5008;50.656;7.188;2023-01-20T13:28:54;7.47;;;6.10;;
9938;SDS011;5008;50.656;7.188;2023-01-20T13:31:40;10.77;;;7.50;;
9938;SDS011;5008;50.656;7.188;2023-01-20T13:34:32;9.63;;;6.87;;
9938;SDS011;5008;50.656;7.188;2023-01-20T13:39:47;9.87;;;7.70;;
9938;SDS011;5008;50.656;7.188;2023-01-20T13:42:25;9.57;;;6.83;;
9938;SDS011;5008;50.656;7.188;2023-01-20T13:45:08;11.07;;;7.40;;
9938;SDS011;5008;50.656;7.188;2023-01-20T13:47:49;9.87;;;6.60;;
9938;SDS011;5008;50.656;7.188;2023-01-20T13:50:22;9.63;;;7.17;;
9938;SDS011;5008;50.656;7.188;2023-01-20T13:53:00;9.07;;;7.77;;
9938;SDS011;5008;50.656;7.188;2023-01-20T13:58:48;10.47;;;7.50;;
9938;SDS011;5008;50.656;7.188;2023-01-20T14:01:15;11.87;;;7.30;;
9938;SDS011;5008;50.656;7.188;2023-01-20T14:03:43;8.00;;;7.10;;
9938;SDS011;5008;50.656;7.188;2023-01-20T14:06:25;8.70;;;7.17;;
9938;SDS011;5008;50.656;7.188;2023-01-20T14:08:52;10.97;;;7.90;;
9938;SDS011;5008;50.656;7.188;2023-01-20T14:11:20;9.57;;;7.70;;
9938;SDS011;5008;50.656;7.188;2023-01-20T14:13:50;13.97;;;8.23;;
9938;SDS011;5008;50.656;7.188;2023-01-20T14:16:18;10.63;;;8.70;;
9938;SDS011;5008;50.656;7.188;2023-01-20T14:18:47;11.30;;;8.37;;
9938;SDS011;5008;50.656;7.188;2023-01-20T14:21:17;10.03;;;8.33;;
9938;SDS011;5008;50.656;7.188;2023-01-20T14:23:45;10.13;;;8.80;;
9938;SDS011;5008;50.656;7.188;2023-01-20T14:26:13;10.50;;;8.53;;
9938;SDS011;5008;50.656;7.188;2023-01-20T14:28:47;12.03;;;8.63;;
9938;SDS011;5008;50.656;7.188;2023-01-20T14:31:17;9.97;;;7.90;;
9938;SDS011;5008;50.656;7.188;2023-01-20T14:33:47;8.27;;;7.40;;
9938;SDS011;5008;50.656;7.188;2023-01-20T14:36:19;10.00;;;8.83;;
9938;SDS011;5008;50.656;7.188;2023-01-20T14:38:48;12.27;;;7.73;;
9938;SDS011;5008;50.656;7.188;2023-01-20T14:44:14;8.97;;;7.27;;
9938;SDS011;5008;50.656;7.188;2023-01-20T14:46:43;12.17;;;7.30;;
9938;SDS011;5008;50.656;7.188;2023-01-20T14:49:14;9.97;;;8.00;;
9938;SDS011;5008;50.656;7.188;2023-01-20T14:51:44;9.33;;;7.70;;
9938;SDS011;5008;50.656;7.188;2023-01-20T15:01:49;8.57;;;7.47;;
9938;SDS011;5008;50.656;7.188;2023-01-20T15:04:18;9.90;;;8.40;;
9938;SDS011;5008;50.656;7.188;2023-01-20T15:06:52;9.53;;;7.87;;
9938;SDS011;5008;50.656;7.188;2023-01-20T15:09:24;9.10;;;7.70;;
9938;SDS011;5008;50.656;7.188;2023-01-20T15:15:02;10.33;;;7.63;;
9938;SDS011;5008;50.656;7.188;2023-01-20T15:18:02;8.77;;;7.50;;
9938;SDS011;5008;50.656;7.188;2023-01-20T15:20:48;9.53;;;7.37;;
9938;SDS011;5008;50.656;7.188;2023-01-20T15:23:20;11.07;;;8.70;;
9938;SDS011;5008;50.656;7.188;2023-01-20T15:25:49;8.40;;;6.97;;
9938;SDS011;5008;50.656;7.188;2023-01-20T15:28:25;8.37;;;7.07;;
9938;SDS011;5008;50.656;7.188;2023-01-20T15:30:54;9.43;;;7.57;;
9938;SDS011;5008;50.656;7.188;2023-01-20T15:33:22;8.93;;;7.37;;
9938;SDS011;5008;50.656;7.188;2023-01-20T15:35:55;9.73;;;7.07;;
9938;SDS011;5008;50.656;7.188;2023-01-20T15:38:27;9.27;;;7.37;;
9938;SDS011;5008;50.656;7.188;2023-01-20T15:40:57;8.37;;;6.87;;
9938;SDS011;5008;50.656;7.188;2023-01-20T15:43:23;8.20;;;6.57;;
9938;SDS011;5008;50.656;7.188;2023-01-20T15:45:51;7.90;;;7.10;;
9938;SDS011;5008;50.656;7.188;2023-01-20T15:48:19;8.37;;;6.93;;
9938;SDS011;5008;50.656;7.188;2023-01-20T15:50:48;9.27;;;7.40;;
9938;SDS011;5008;50.656;7.188;2023-01-20T15:53:16;7.83;;;6.40;;
9938;SDS011;5008;50.656;7.188;2023-01-20T15:55:44;10.37;;;7.30;;
9938;SDS011;5008;50.656;7.188;2023-01-20T15:58:25;8.30;;;6.93;;
9938;SDS011;5008;50.656;7.188;2023-01-20T16:00:55;10.27;;;7.30;;
9938;SDS011;5008;50.656;7.188;2023-01-20T16:03:22;8.07;;;7.20;;
9938;SDS011;5008;50.656;7.188;2023-01-20T16:05:50;9.60;;;7.17;;
9938;SDS011;5008;50.656;7.188;2023-01-20T16:08:21;8.83;;;7.33;;
9938;SDS011;5008;50.656;7.188;2023-01-20T16:10:48;8.07;;;7.27;;
9938;SDS011;5008;50.656;7.188;2023-01-20T16:13:15;7.57;;;6.47;;
9938;SDS011;5008;50.656;7.188;2023-01-20T16:15:47;9.13;;;6.20;;
9938;SDS011;5008;50.656;7.188;2023-01-20T16:18:16;7.13;;;6.27;;
9938;SDS011;5008;50.656;7.188;2023-01-20T16:20:45;6.67;;;6.00;;
9938;SDS011;5008;50.656;7.188;2023-01-20T16:23:14;6.57;;;5.90;;
9938;SDS011;5008;50.656;7.188;2023-01-20T16:25:42;7.10;;;6.40;;
9938;SDS011;5008;50.656;7.188;2023-01-20T16:28:11;6.20;;;5.53;;
9938;SDS011;5008;50.656;7.188;2023-01-20T16:30:39;6.10;;;5.50;;
9938;SDS011;5008;50.656;7.188;2023-01-20T16:33:13;8.03;;;5.77;;
9938;SDS011;5008;50.656;7.188;2023-01-20T16:35:41;5.47;;;4.97;;
9938;SDS011;5008;50.656;7.188;2023-01-20T16:38:10;6.70;;;5.70;;
9938;SDS011;5008;50.656;7.188;2023-01-20T16:40:40;6.50;;;5.40;;
9938;SDS011;5008;50.656;7.188;2023-01-20T16:43:13;5.83;;;4.87;;
9938;SDS011;5008;50.656;7.188;2023-01-20T16:45:40;5.47;;;4.70;;
9938;SDS011;5008;50.656;7.188;2023-01-20T16:48:07;5.37;;;4.83;;
9938;SDS011;5008;50.656;7.188;2023-01-20T16:50:34;5.43;;;4.47;;
9938;SDS011;5008;50.656;7.188;2023-01-20T16:53:02;4.53;;;4.13;;
9938;SDS011;5008;50.656;7.188;2023-01-20T16:55:33;4.73;;;4.13;;
9938;SDS011;5008;50.656;7.188;2023-01-20T16:58:01;4.50;;;4.10;;
9938;SDS011;5008;50.656;7.188;2023-01-20T17:00:28;5.10;;;4.30;;
9938;SDS011;5008;50.656;7.188;2023-01-20T17:02:55;4.37;;;3.97;;
9938;SDS011;5008;50.656;7.188;2023-01-20T17:05:22;4.90;;;4.40;;
9938;SDS011;5008;50.656;7.188;2023-01-20T17:07:49;4.83;;;4.30;;
9938;SDS011;5008;50.656;7.188;2023-01-20T17:10:17;5.30;;;4.60;;
9938;SDS011;5008;50.656;7.188;2023-01-20T17:12:45;4.40;;;4.00;;
9938;SDS011;5008;50.656;7.188;2023-01-20T17:15:14;6.53;;;5.77;;
9938;SDS011;5008;50.656;7.188;2023-01-20T17:17:41;5.20;;;4.70;;
9938;SDS011;5008;50.656;7.188;2023-01-20T17:20:08;5.77;;;5.03;;
9938;SDS011;5008;50.656;7.188;2023-01-20T17:22:36;5.10;;;4.60;;
9938;SDS011;5008;50.656;7.188;2023-01-20T17:25:04;4.83;;;4.43;;
9938;SDS011;5008;50.656;7.188;2023-01-20T17:27:32;5.80;;;4.73;;
9938;SDS011;5008;50.656;7.188;2023-01-20T17:29:59;4.80;;;4.30;;
9938;SDS011;5008;50.656;7.188;2023-01-20T17:32:27;5.70;;;4.47;;
9938;SDS011;5008;50.656;7.188;2023-01-20T17:34:54;5.57;;;5.07;;
9938;SDS011;5008;50.656;7.188;2023-01-20T17:37:21;5.30;;;4.80;;
9938;SDS011;5008;50.656;7.188;2023-01-20T17:39:47;5.90;;;4.90;;
9938;SDS011;5008;50.656;7.188;2023-01-20T17:42:14;5.30;;;4.80;;
9938;SDS011;5008;50.656;7.188;2023-01-20T17:44:41;5.67;;;5.10;;
9938;SDS011;5008;50.656;7.188;2023-01-20T17:47:08;5.20;;;4.70;;
9938;SDS011;5008;50.656;7.188;2023-01-20T17:49:36;6.10;;;5.50;;
9938;SDS011;5008;50.656;7.188;2023-01-20T17:52:03;5.87;;;5.37;;
9938;SDS011;5008;50.656;7.188;2023-01-20T17:54:30;6.57;;;5.80;;
9938;SDS011;5008;50.656;7.188;2023-01-20T17:56:57;7.53;;;6.73;;
9938;SDS011;5008;50.656;7.188;2023-01-20T17:59:24;8.17;;;7.23;;
9938;SDS011;5008;50.656;7.188;2023-01-20T18:01:51;7.17;;;6.43;;
9938;SDS011;5008;50.656;7.188;2023-01-20T18:04:18;6.30;;;5.70;;
9938;SDS011;5008;50.656;7.188;2023-01-20T18:06:46;6.47;;;5.87;;
9938;SDS011;5008;50.656;7.188;2023-01-20T18:09:13;7.77;;;6.97;;
9938;SDS011;5008;50.656;7.188;2023-01-20T18:11:40;6.80;;;6.17;;
9938;SDS011;5008;50.656;7.188;2023-01-20T18:14:08;7.27;;;6.57;;
9938;SDS011;5008;50.656;7.188;2023-01-20T18:16:35;7.07;;;6.37;;
9938;SDS011;5008;50.656;7.188;2023-01-20T18:19:03;7.93;;;7.07;;
9938;SDS011;5008;50.656;7.188;2023-01-20T18:21:30;8.73;;;6.83;;
9938;SDS011;5008;50.656;7.188;2023-01-20T18:24:00;7.87;;;6.40;;
9938;SDS011;5008;50.656;7.188;2023-01-20T18:26:29;11.50;;;8.00;;
9938;SDS011;5008;50.656;7.188;2023-01-20T18:28:57;7.43;;;6.73;;
9938;SDS011;5008;50.656;7.188;2023-01-20T18:31:27;8.97;;;7.57;;
9938;SDS011;5008;50.656;7.188;2023-01-20T18:33:55;9.40;;;7.03;;
9938;SDS011;5008;50.656;7.188;2023-01-20T18:36:23;8.10;;;7.30;;
9938;SDS011;5008;50.656;7.188;2023-01-20T18:38:51;10.57;;;7.90;;
9938;SDS011;5008;50.656;7.188;2023-01-20T18:41:21;8.60;;;7.67;;
9938;SDS011;5008;50.656;7.188;2023-01-20T18:43:49;9.43;;;7.93;;
9938;SDS011;5008;50.656;7.188;2023-01-20T18:46:16;8.20;;;7.20;;
9938;SDS011;5008;50.656;7.188;2023-01-20T18:48:44;9.00;;;7.13;;
9938;SDS011;5008;50.656;7.188;2023-01-20T18:51:13;8.27;;;7.20;;
9938;SDS011;5008;50.656;7.188;2023-01-20T18:53:41;8.83;;;7.47;;
9938;SDS011;5008;50.656;7.188;2023-01-20T18:56:09;8.67;;;7.43;;
9938;SDS011;5008;50.656;7.188;2023-01-20T18:58:38;9.00;;;7.80;;
9938;SDS011;5008;50.656;7.188;2023-01-20T19:01:10;9.97;;;7.60;;
9938;SDS011;5008;50.656;7.188;2023-01-20T19:03:38;8.97;;;7.93;;
9938;SDS011;5008;50.656;7.188;2023-01-20T19:06:06;9.07;;;8.10;;
9938;SDS011;5008;50.656;7.188;2023-01-20T19:08:35;10.30;;;8.23;;
9938;SDS011;5008;50.656;7.188;2023-01-20T19:11:03;10.60;;;8.20;;
9938;SDS011;5008;50.656;7.188;2023-01-20T19:13:32;9.37;;;8.40;;
9938;SDS011;5008;50.656;7.188;2023-01-20T19:16:01;8.80;;;7.83;;
9938;SDS011;5008;50.656;7.188;2023-01-20T19:18:29;9.87;;;8.40;;
9938;SDS011;5008;50.656;7.188;2023-01-20T19:21:01;9.70;;;8.60;;
9938;SDS011;5008;50.656;7.188;2023-01-20T19:23:29;10.00;;;9.00;;
9938;SDS011;5008;50.656;7.188;2023-01-20T19:25:59;10.43;;;9.03;;
9938;SDS011;5008;50.656;7.188;2023-01-20T19:28:27;12.87;;;9.43;;
9938;SDS011;5008;50.656;7.188;2023-01-20T19:30:53;11.27;;;10.07;;
9938;SDS011;5008;50.656;7.188;2023-01-20T19:33:21;11.10;;;9.53;;
9938;SDS011;5008;50.656;7.188;2023-01-20T19:35:48;12.03;;;9.57;;
9938;SDS011;5008;50.656;7.188;2023-01-20T19:38:15;10.40;;;9.30;;
9938;SDS011;5008;50.656;7.188;2023-01-20T19:40:42;11.10;;;9.33;;
9938;SDS011;5008;50.656;7.188;2023-01-20T19:43:09;10.30;;;9.17;;
9938;SDS011;5008;50.656;7.188;2023-01-20T19:45:36;10.07;;;8.50;;
9938;SDS011;5008;50.656;7.188;2023-01-20T19:48:02;11.57;;;9.30;;
9938;SDS011;5008;50.656;7.188;2023-01-20T19:50:31;10.67;;;9.07;;
9938;SDS011;5008;50.656;7.188;2023-01-20T19:52:57;11.80;;;9.47;;
9938;SDS011;5008;50.656;7.188;2023-01-20T19:55:24;10.00;;;8.30;;
9938;SDS011;5008;50.656;7.188;2023-01-20T19:57:51;10.27;;;8.43;;
9938;SDS011;5008;50.656;7.188;2023-01-20T20:00:18;10.43;;;8.30;;
9938;SDS011;5008;50.656;7.188;2023-01-20T20:02:45;10.13;;;8.33;;
9938;SDS011;5008;50.656;7.188;2023-01-20T20:05:11;10.00;;;8.37;;
9938;SDS011;5008;50.656;7.188;2023-01-20T20:07:42;10.43;;;8.23;;
9938;SDS011;5008;50.656;7.188;2023-01-20T20:10:08;9.57;;;8.57;;
9938;SDS011;5008;50.656;7.188;2023-01-20T20:12:35;12.37;;;8.77;;
9938;SDS011;5008;50.656;7.188;2023-01-20T20:15:02;12.17;;;8.70;;
9938;SDS011;5008;50.656;7.188;2023-01-20T20:17:30;12.20;;;9.33;;
9938;SDS011;5008;50.656;7.188;2023-01-20T20:19:56;9.23;;;8.07;;
9938;SDS011;5008;50.656;7.188;2023-01-20T20:22:23;11.47;;;8.00;;
9938;SDS011;5008;50.656;7.188;2023-01-20T20:24:51;10.33;;;8.77;;
9938;SDS011;5008;50.656;7.188;2023-01-20T20:27:18;12.37;;;9.43;;
9938;SDS011;5008;50.656;7.188;2023-01-20T20:29:44;12.37;;;10.03;;
9938;SDS011;5008;50.656;7.188;2023-01-20T20:32:11;10.53;;;9.03;;
9938;SDS011;5008;50.656;7.188;2023-01-20T20:34:38;11.47;;;9.57;;
9938;SDS011;5008;50.656;7.188;2023-01-20T20:37:05;9.90;;;8.73;;
9938;SDS011;5008;50.656;7.188;2023-01-20T20:39:32;9.67;;;8.20;;
9938;SDS011;5008;50.656;7.188;2023-01-20T20:42:01;9.57;;;8.17;;
9938;SDS011;5008;50.656;7.188;2023-01-20T20:44:28;10.57;;;8.73;;
9938;SDS011;5008;50.656;7.188;2023-01-20T20:46:55;9.57;;;8.33;;
9938;SDS011;5008;50.656;7.188;2023-01-20T20:49:21;10.60;;;9.23;;
9938;SDS011;5008;50.656;7.188;2023-01-20T20:51:48;11.20;;;9.20;;
9938;SDS011;5008;50.656;7.188;2023-01-20T20:54:15;10.13;;;8.73;;